Time;durP1;ratioP1;P1;durP2;ratioP2;P2;SDS_P1;SDS_P2;PMS_P1;PMS_P2;Temp;Humidity;BMP_temperature;BMP_pressure;BME280_temperature;BME280_humidity;BME280_pressure;Samples;Min_cycle;Max_cycle;Signal;HPM_P1;HPM_P2
2022/03/23 00:00:30;;;;;;;23.20;14.50;;;;;;;3.69;42.54;102541.50;7398077;19;20082;-65
2022/03/23 00:02:59;;;;;;;23.17;14.93;;;;;;;3.68;42.82;102532.84;7397920;19;20018;-65
2022/03/23 00:05:28;;;;;;;24.45;15.85;;;;;;;3.63;42.83;102523.13;7397523;19;20378;-66
2022/03/23 00:08:01;;;;;;;24.17;15.48;;;;;;;3.65;43.11;102527.56;7400266;19;20019;-66
2022/03/23 00:10:29;;;;;;;23.20;14.95;;;;;;;3.64;43.18;102537.88;7398245;19;20035;-64
2022/03/23 00:12:59;;;;;;;32.00;18.17;;;;;;;3.61;43.26;102530.00;7397500;19;20078;-65
2022/03/23 00:15:27;;;;;;;30.80;17.58;;;;;;;3.57;43.54;102526.41;7399815;19;20018;-65
2022/03/23 00:17:56;;;;;;;27.27;15.90;;;;;;;3.52;43.83;102525.34;7399403;19;20435;-64
2022/03/23 00:20:24;;;;;;;31.88;17.58;;;;;;;3.50;43.80;102534.78;7398181;19;20074;-64
2022/03/23 00:22:53;;;;;;;25.33;16.52;;;;;;;3.45;43.93;102524.25;7397465;19;20078;-64
2022/03/23 00:25:24;;;;;;;25.77;17.65;;;;;;;3.41;44.11;102528.44;7398920;19;20083;-65
2022/03/23 00:27:52;;;;;;;24.65;15.55;;;;;;;3.38;44.00;102525.72;7397241;19;20032;-65
2022/03/23 00:30:21;;;;;;;27.50;15.40;;;;;;;3.34;44.18;102528.16;7399489;19;20077;-65
2022/03/23 00:32:49;;;;;;;21.63;14.98;;;;;;;3.29;44.20;102524.53;7396976;19;20026;-65
2022/03/23 00:35:17;;;;;;;24.77;15.73;;;;;;;3.26;44.45;102528.75;7397089;19;20074;-64
2022/03/23 00:37:46;;;;;;;19.70;13.70;;;;;;;3.22;44.49;102524.28;7399164;19;20048;-65
2022/03/23 00:40:15;;;;;;;20.30;13.50;;;;;;;3.16;44.54;102518.88;7396889;19;20018;-64
2022/03/23 00:42:45;;;;;;;17.95;13.50;;;;;;;3.10;44.41;102514.31;7397213;19;20078;-65
2022/03/23 00:45:14;;;;;;;16.60;12.45;;;;;;;3.05;44.46;102515.84;7396472;19;20504;-65
2022/03/23 00:47:43;;;;;;;24.80;12.73;;;;;;;3.00;44.73;102517.41;7396804;19;20014;-65
2022/03/23 00:50:12;;;;;;;16.27;12.07;;;;;;;2.97;44.93;102512.13;7398769;19;20028;-68
2022/03/23 00:52:40;;;;;;;21.45;13.25;;;;;;;2.91;44.86;102520.53;7396499;19;20015;-65
2022/03/23 00:55:09;;;;;;;17.48;12.80;;;;;;;2.87;45.25;102517.75;7398653;19;20023;-65
2022/03/23 00:57:38;;;;;;;18.73;13.30;;;;;;;2.82;45.30;102516.69;7398280;19;20035;-65
2022/03/23 01:00:13;;;;;;;21.08;13.63;;;;;;;2.76;45.44;102514.75;7398082;19;20495;-65
2022/03/23 01:02:41;;;;;;;20.13;14.13;;;;;;;2.71;45.19;102517.16;7397198;19;20023;-65
2022/03/23 01:05:11;;;;;;;22.63;14.20;;;;;;;2.67;45.44;102511.81;7396289;19;20014;-65
2022/03/23 01:07:40;;;;;;;21.70;14.95;;;;;;;2.61;45.78;102507.25;7398276;19;20019;-66
2022/03/23 01:10:11;;;;;;;23.55;14.73;;;;;;;2.57;46.02;102511.44;7396173;19;20110;-66
2022/03/23 01:12:40;;;;;;;24.50;15.57;;;;;;;2.53;45.96;102508.69;7397977;19;20023;-65
2022/03/23 01:15:12;;;;;;;24.65;17.02;;;;;;;2.48;46.11;102511.06;7396093;19;20039;-65
2022/03/23 01:17:41;;;;;;;24.60;15.68;;;;;;;2.43;46.42;102508.28;7396109;19;20014;-66
2022/03/23 01:20:12;;;;;;;24.92;16.25;;;;;;;2.39;46.52;102508.09;7395983;19;20078;-66
2022/03/23 01:22:42;;;;;;;24.63;16.90;;;;;;;2.33;46.50;102511.34;7396034;19;20035;-66
2022/03/23 01:25:12;;;;;;;26.25;17.75;;;;;;;2.27;46.85;102509.41;7395738;19;20019;-66
2022/03/23 01:27:48;;;;;;;24.27;16.88;;;;;;;2.22;46.82;102503.13;7395286;19;20031;-66
2022/03/23 01:30:25;;;;;;;24.95;17.70;;;;;;;2.17;46.92;102508.94;7398113;19;20349;-65
2022/03/23 01:32:54;;;;;;;24.02;16.40;;;;;;;2.11;47.25;102518.22;7397490;19;20018;-66
2022/03/23 01:35:23;;;;;;;21.42;15.55;;;;;;;2.05;47.28;102514.50;7395690;19;20094;-65
2022/03/23 01:37:51;;;;;;;25.40;17.73;;;;;;;2.00;47.38;102508.22;7397273;19;20018;-65
2022/03/23 01:40:19;;;;;;;22.35;16.65;;;;;;;1.95;47.41;102506.34;7395425;19;20035;-65
2022/03/23 01:42:47;;;;;;;29.25;16.80;;;;;;;1.92;47.79;102513.06;7395101;19;20074;-65
2022/03/23 01:45:15;;;;;;;24.75;16.85;;;;;;;1.86;47.90;102521.47;7396955;19;20091;-65
2022/03/23 01:47:46;;;;;;;23.42;16.73;;;;;;;1.81;47.81;102511.75;7396971;19;20014;-65
2022/03/23 01:50:14;;;;;;;24.95;16.38;;;;;;;1.76;48.14;102508.97;7397319;19;20086;-65
2022/03/23 01:52:42;;;;;;;25.38;16.30;;;;;;;1.71;48.33;102513.06;7396226;19;20086;-65
2022/03/23 01:55:13;;;;;;;26.38;15.82;;;;;;;1.67;48.25;102517.22;7396565;19;20420;-67
2022/03/23 01:57:46;;;;;;;20.08;14.95;;;;;;;1.63;48.40;102517.88;7396998;19;20045;-69
2022/03/23 02:00:16;;;;;;;20.42;14.68;;;;;;;1.58;48.57;102512.53;7396966;19;20010;-68
2022/03/23 02:02:48;;;;;;;21.08;14.68;;;;;;;1.54;48.55;102509.72;7395704;19;20019;-68
2022/03/23 02:05:17;;;;;;;20.33;13.00;;;;;;;1.50;48.63;102513.00;7395203;19;20025;-69
2022/03/23 02:07:45;;;;;;;17.55;12.60;;;;;;;1.44;48.81;102509.34;7394914;19;20019;-68
2022/03/23 02:10:13;;;;;;;16.63;12.27;;;;;;;1.39;48.58;102510.84;7396230;19;20066;-68
2022/03/23 02:12:45;;;;;;;16.05;12.65;;;;;;;1.33;48.98;102502.81;7395870;19;20026;-68
2022/03/23 02:15:16;;;;;;;19.38;11.90;;;;;;;1.30;48.87;102510.41;7396117;19;20039;-68
2022/03/23 02:17:53;;;;;;;19.90;12.25;;;;;;;1.24;49.12;102503.28;7396417;19;20174;-68
2022/03/23 02:20:21;;;;;;;15.77;11.48;;;;;;;1.20;49.12;102501.38;7396385;19;20014;-68
2022/03/23 02:22:51;;;;;;;17.80;11.15;;;;;;;1.17;49.29;102495.19;7394016;19;20102;-68
2022/03/23 02:25:24;;;;;;;14.60;10.45;;;;;;;1.13;49.35;102501.91;7396133;19;20014;-69
2022/03/23 02:27:54;;;;;;;17.52;11.27;;;;;;;1.08;49.17;102493.94;7393688;19;20027;-69
2022/03/23 02:30:22;;;;;;;12.68;9.98;;;;;;;1.04;49.18;102491.16;7393936;19;20023;-68
2022/03/23 02:32:51;;;;;;;12.82;9.93;;;;;;;1.00;49.36;102496.97;7393768;19;20037;-68
2022/03/23 02:35:19;;;;;;;14.60;9.80;;;;;;;0.95;49.53;102489.03;7395474;19;20014;-69
2022/03/23 02:37:47;;;;;;;15.70;10.52;;;;;;;0.91;49.62;102493.16;7395390;19;20035;-68
2022/03/23 02:40:18;;;;;;;13.02;10.40;;;;;;;0.88;49.70;102486.97;7395840;19;20094;-68
2022/03/23 02:42:46;;;;;;;15.82;9.80;;;;;;;0.84;49.56;102488.53;7393680;19;20084;-68
2022/03/23 02:45:15;;;;;;;15.75;9.73;;;;;;;0.81;49.63;102497.03;7395262;19;20035;-68
2022/03/23 02:47:44;;;;;;;12.57;9.32;;;;;;;0.78;49.68;102493.41;7394075;19;20015;-68
2022/03/23 02:50:12;;;;;;;12.07;9.30;;;;;;;0.74;49.70;102486.34;7395080;19;20018;-68
2022/03/23 03:01:52;;;;;;;14.75;9.98;;;;;;;0.71;50.00;102496.50;7392722;19;20505;-68
2022/03/23 03:03:49;;;;;;;18.48;11.88;;;;;;;0.56;49.96;102486.34;7392552;19;20494;-69
2022/03/23 03:06:17;;;;;;;18.25;10.60;;;;;;;0.51;49.79;102493.88;7394735;19;20030;-68
2022/03/23 03:08:48;;;;;;;19.02;10.25;;;;;;;0.44;49.88;102482.38;7394102;19;20476;-68
2022/03/23 03:11:22;;;;;;;13.05;9.50;;;;;;;0.44;50.24;102491.81;7394710;19;20019;-68
2022/03/23 03:13:51;;;;;;;;;;;;;;;0.42;50.41;102499.47;7394161;19;20014;-68
2022/03/23 03:16:21;;;;;;;15.40;10.63;;;;;;;0.38;49.99;102494.09;7394314;19;19944;-68
2022/03/23 03:18:49;;;;;;;15.70;9.65;;;;;;;0.35;50.04;102500.00;7392216;19;20023;-68
2022/03/23 03:21:18;;;;;;;12.35;9.68;;;;;;;0.33;50.29;102504.22;7400084;19;20041;-68
2022/03/23 03:23:48;;;;;;;14.40;10.27;;;;;;;0.30;50.23;102498.88;7400235;19;20011;-69
2022/03/23 03:26:20;;;;;;;13.57;9.88;;;;;;;0.29;50.23;102497.09;7402479;19;20010;-69
2022/03/23 03:28:49;;;;;;;14.38;9.82;;;;;;;0.27;50.35;102493.59;7399755;19;20014;-68
2022/03/23 03:31:17;;;;;;;15.48;10.27;;;;;;;0.22;50.42;102489.91;7401315;19;20018;-68
2022/03/23 03:33:46;;;;;;;12.23;9.43;;;;;;;0.22;50.77;102495.94;7399293;19;20019;-68
2022/03/23 03:36:15;;;;;;;14.98;9.30;;;;;;;0.19;50.73;102495.78;7398544;19;20027;-68
2022/03/23 03:38:45;;;;;;;13.57;10.48;;;;;;;0.18;51.01;102498.28;7400736;19;20416;-68
2022/03/23 03:41:13;;;;;;;15.63;10.82;;;;;;;0.16;50.96;102493.03;7401223;19;20023;-68
2022/03/23 03:43:44;;;;;;;16.13;10.07;;;;;;;0.14;50.93;102497.28;7398262;19;20074;-68
2022/03/23 03:46:12;;;;;;;16.70;10.52;;;;;;;0.10;51.05;102497.91;7398530;19;20022;-68
2022/03/23 03:48:41;;;;;;;15.32;9.80;;;;;;;0.10;51.15;102500.47;7400889;19;20070;-68
2022/03/23 03:51:10;;;;;;;15.85;10.13;;;;;;;0.07;51.15;102496.06;7400750;19;20493;-68
2022/03/23 03:53:38;;;;;;;14.27;9.82;;;;;;;0.05;51.47;102497.69;7399054;19;20022;-68
2022/03/23 03:56:08;;;;;;;13.90;10.40;;;;;;;0.04;51.55;102495.91;7398683;19;20029;-68
2022/03/23 03:58:36;;;;;;;13.40;9.55;;;;;;;0.03;51.70;102493.28;7401227;19;20018;-68
2022/03/23 04:01:07;;;;;;;14.27;10.50;;;;;;;0.01;51.88;102495.75;7398122;19;20078;-68
2022/03/23 04:03:35;;;;;;;14.38;10.80;;;;;;;-0.02;51.73;102496.47;7398821;19;20077;-68
2022/03/23 04:06:03;;;;;;;15.82;10.35;;;;;;;-0.04;51.82;102499.81;7400020;19;20515;-67
2022/03/23 04:08:31;;;;;;;15.10;9.93;;;;;;;-0.06;52.13;102501.44;7400009;19;20027;-68
2022/03/23 04:10:59;;;;;;;15.07;10.40;;;;;;;-0.08;52.22;102505.63;7399767;19;20023;-67
2022/03/23 04:13:27;;;;;;;14.18;11.00;;;;;;;-0.10;52.21;102502.06;7398615;19;20019;-67
2022/03/23 04:15:55;;;;;;;15.00;10.18;;;;;;;-0.13;52.17;102505.38;7399941;19;20018;-68
2022/03/23 04:18:26;;;;;;;16.38;10.82;;;;;;;-0.15;52.38;102509.59;7399698;19;20032;-67
2022/03/23 04:20:55;;;;;;;13.52;10.55;;;;;;;-0.18;52.30;102505.16;7397891;19;20026;-68
2022/03/23 04:23:23;;;;;;;16.90;11.00;;;;;;;-0.20;52.62;102501.63;7398320;19;20014;-68
2022/03/23 04:25:51;;;;;;;16.20;10.95;;;;;;;-0.21;52.63;102507.56;7399498;19;20015;-68
2022/03/23 04:28:20;;;;;;;14.93;11.38;;;;;;;-0.22;52.64;102508.38;7396722;19;20010;-68
2022/03/23 04:30:49;;;;;;;16.48;11.55;;;;;;;-0.23;52.97;102505.72;7396029;19;20011;-68
2022/03/23 04:33:17;;;;;;;19.08;12.82;;;;;;;-0.24;52.78;102509.09;7398129;19;20023;-67
2022/03/23 04:35:47;;;;;;;16.23;11.88;;;;;;;-0.26;53.12;102503.88;7399010;19;20018;-68
2022/03/23 04:38:16;;;;;;;21.65;13.85;;;;;;;-0.27;53.11;102504.69;7397316;19;20035;-68
2022/03/23 04:40:45;;;;;;;17.23;12.30;;;;;;;-0.28;53.41;102500.31;7398801;19;20037;-68
2022/03/23 04:43:13;;;;;;;13.73;11.23;;;;;;;-0.29;53.39;102503.72;7395721;19;20376;-68
2022/03/23 04:45:42;;;;;;;17.52;11.27;;;;;;;-0.31;53.54;102500.19;7396214;19;20413;-70
2022/03/23 04:48:10;;;;;;;16.40;11.50;;;;;;;-0.33;53.51;102499.19;7396369;19;20014;-67
2022/03/23 04:50:39;;;;;;;17.38;11.80;;;;;;;-0.34;53.53;102502.63;7398716;19;20018;-67
2022/03/23 04:53:10;;;;;;;16.67;12.70;;;;;;;-0.35;53.67;102498.25;7395947;19;20014;-68
2022/03/23 04:55:38;;;;;;;19.50;13.50;;;;;;;-0.39;53.69;102493.72;7398947;19;20018;-68
2022/03/23 04:58:07;;;;;;;19.83;13.35;;;;;;;-0.40;53.73;102500.59;7398462;19;20035;-68
2022/03/23 05:00:35;;;;;;;17.65;13.52;;;;;;;-0.41;53.81;102498.81;7395990;19;20011;-68
2022/03/23 05:03:04;;;;;;;17.38;12.70;;;;;;;-0.42;54.09;102496.16;7396722;19;20454;-67
2022/03/23 05:05:32;;;;;;;18.83;12.57;;;;;;;-0.43;53.94;102499.53;7397862;19;20018;-68
2022/03/23 05:08:01;;;;;;;18.17;12.85;;;;;;;-0.44;54.03;102497.75;7397575;19;20018;-69
2022/03/23 05:10:31;;;;;;;21.10;12.95;;;;;;;-0.46;54.45;102499.41;7395727;19;20014;-68
2022/03/23 05:13:00;;;;;;;20.95;12.93;;;;;;;-0.48;54.33;102506.16;7395438;19;20022;-67
2022/03/23 05:15:28;;;;;;;22.25;13.75;;;;;;;-0.50;54.42;102499.22;7398314;19;20011;-68
2022/03/23 05:17:56;;;;;;;25.23;17.52;;;;;;;-0.50;54.48;102496.66;7395272;19;20026;-67
2022/03/23 05:20:24;;;;;;;21.85;14.80;;;;;;;-0.52;54.68;102495.69;7396729;19;20022;-67
2022/03/23 05:22:53;;;;;;;17.15;11.38;;;;;;;-0.52;54.80;102506.00;7396478;19;20035;-66
2022/03/23 05:25:22;;;;;;;18.30;12.38;;;;;;;-0.52;54.72;102508.59;7395706;19;20018;-68
2022/03/23 05:27:53;;;;;;;16.95;11.15;;;;;;;-0.51;54.75;102506.88;7394638;19;20070;-68
2022/03/23 05:30:21;;;;;;;15.82;11.38;;;;;;;-0.52;54.81;102511.16;7395714;19;20073;-68
2022/03/23 05:32:49;;;;;;;19.23;11.40;;;;;;;-0.52;55.02;102510.25;7395866;19;20347;-69
2022/03/23 05:35:17;;;;;;;19.27;12.10;;;;;;;-0.52;55.11;102523.16;7394767;19;20018;-68
2022/03/23 05:37:45;;;;;;;18.60;11.93;;;;;;;-0.53;55.15;102522.28;7396421;19;20035;-67
2022/03/23 05:40:14;;;;;;;19.65;12.60;;;;;;;-0.53;54.99;102517.13;7396373;19;20433;-67
2022/03/23 05:42:42;;;;;;;23.92;12.82;;;;;;;-0.54;54.88;102517.94;7394696;19;20027;-68
2022/03/23 05:45:13;;;;;;;20.13;12.85;;;;;;;-0.52;55.32;102515.41;7396525;19;20036;-67
2022/03/23 05:47:42;;;;;;;20.02;12.82;;;;;;;-0.52;55.29;102524.06;7396338;19;20039;-68
2022/03/23 05:50:13;;;;;;;21.75;12.77;;;;;;;-0.51;55.41;102517.19;7396194;19;20496;-68
2022/03/23 05:52:41;;;;;;;33.95;14.02;;;;;;;-0.51;55.35;102510.34;7394472;19;20412;-68
2022/03/23 05:55:10;;;;;;;18.90;12.13;;;;;;;-0.50;55.21;102512.13;7396102;19;20033;-68
2022/03/23 05:57:39;;;;;;;23.63;13.02;;;;;;;-0.47;55.39;102515.66;7396069;19;20036;-68
2022/03/23 06:00:11;;;;;;;19.88;13.07;;;;;;;-0.48;55.53;102509.63;7395103;19;20363;-67
2022/03/23 06:02:43;;;;;;;25.88;12.60;;;;;;;-0.43;55.49;102512.44;7396082;19;20026;-69
2022/03/23 06:05:12;;;;;;;19.00;12.35;;;;;;;-0.40;55.24;102507.47;7394888;19;20016;-67
2022/03/23 06:07:40;;;;;;;22.10;13.45;;;;;;;-0.36;55.56;102506.78;7393430;19;20018;-68
2022/03/23 06:10:09;;;;;;;24.83;13.40;;;;;;;-0.32;55.34;102515.59;7393150;19;20035;-69
2022/03/23 06:12:38;;;;;;;23.30;14.68;;;;;;;-0.29;55.53;102514.06;7393999;19;20016;-67
2022/03/23 06:15:08;;;;;;;17.10;12.05;;;;;;;-0.25;55.49;102505.66;7395100;19;20031;-68
2022/03/23 06:17:37;;;;;;;24.45;14.57;;;;;;;-0.20;55.47;102505.91;7392826;19;20471;-68
2022/03/23 06:20:09;;;;;;;23.50;14.68;;;;;;;-0.13;55.31;102512.25;7393489;19;20221;-69
2022/03/23 06:22:38;;;;;;;28.40;14.70;;;;;;;-0.07;55.49;102505.69;7394673;19;20019;-69
2022/03/23 06:25:07;;;;;;;25.25;15.20;;;;;;;-0.01;55.40;102506.00;7393261;19;20018;-68
2022/03/23 06:27:35;;;;;;;19.38;14.20;;;;;;;0.06;55.56;102507.19;7393858;19;20010;-67
2022/03/23 06:30:04;;;;;;;23.23;14.80;;;;;;;0.12;55.41;102509.19;7395135;19;20035;-68
2022/03/23 06:32:33;;;;;;;20.65;14.50;;;;;;;0.19;55.36;102503.53;7394446;19;20026;-67
2022/03/23 06:35:01;;;;;;;21.75;14.98;;;;;;;0.24;55.51;102503.75;7395040;19;20024;-68
2022/03/23 06:37:33;;;;;;;21.17;13.93;;;;;;;0.31;55.56;102514.44;7394213;19;20031;-68
2022/03/23 06:40:01;;;;;;;24.48;15.50;;;;;;;0.39;55.21;102520.00;7393125;19;20487;-68
2022/03/23 06:42:29;;;;;;;19.50;14.18;;;;;;;0.43;55.34;102513.28;7394132;19;20035;-68
2022/03/23 06:44:58;;;;;;;37.05;21.50;;;;;;;0.53;55.35;102518.09;7392705;19;20475;-67
2022/03/23 06:47:26;;;;;;;29.00;16.02;;;;;;;0.61;55.35;102518.47;7392636;19;20015;-68
2022/03/23 06:49:54;;;;;;;26.60;15.80;;;;;;;0.69;55.10;102519.69;7392732;19;20040;-68
2022/03/23 06:52:22;;;;;;;26.92;15.55;;;;;;;0.77;54.97;102523.53;7393829;19;20014;-68
2022/03/23 06:54:53;;;;;;;25.80;16.80;;;;;;;0.86;55.15;102524.75;7398087;19;20022;-68
2022/03/23 06:57:21;;;;;;;19.48;15.68;;;;;;;0.93;54.78;102529.41;7402001;19;20031;-68
2022/03/23 06:59:49;;;;;;;24.20;15.65;;;;;;;1.02;54.59;102540.19;7399168;19;20040;-68
2022/03/23 07:02:17;;;;;;;26.50;18.50;;;;;;;1.11;54.64;102537.13;7401604;19;20031;-68
2022/03/23 07:04:45;;;;;;;33.08;21.08;;;;;;;1.20;54.62;102535.00;7399206;19;20043;-67
2022/03/23 07:07:14;;;;;;;34.95;22.30;;;;;;;1.29;54.48;102539.69;7398712;19;20018;-67
2022/03/23 07:09:46;;;;;;;37.75;24.90;;;;;;;1.38;54.43;102541.78;7401442;19;20028;-69
2022/03/23 07:12:17;;;;;;;40.17;25.40;;;;;;;1.48;54.08;102543.09;7401419;19;20471;-68
2022/03/23 07:14:45;;;;;;;33.42;22.77;;;;;;;1.58;53.99;102540.09;7403298;19;20034;-68
2022/03/23 07:17:13;;;;;;;28.05;19.08;;;;;;;1.69;53.91;102540.56;7401414;19;20031;-68
2022/03/23 07:19:41;;;;;;;29.70;18.65;;;;;;;1.81;53.73;102541.09;7401117;19;20495;-68
2022/03/23 07:22:11;;;;;;;34.55;17.85;;;;;;;1.92;53.43;102545.06;7398595;19;20014;-68
2022/03/23 07:24:47;;;;;;;28.02;17.65;;;;;;;2.06;53.61;102542.13;7398604;19;20152;-67
2022/03/23 07:27:18;;;;;;;26.83;16.33;;;;;;;2.19;53.01;102538.38;7396881;19;20482;-68
2022/03/23 07:29:46;;;;;;;24.02;17.42;;;;;;;2.31;52.88;102538.88;7400836;19;20018;-67
2022/03/23 07:32:14;;;;;;;30.20;16.50;;;;;;;2.46;52.75;102540.34;7400605;19;20028;-68
2022/03/23 07:34:42;;;;;;;34.65;20.52;;;;;;;2.58;52.99;102538.25;7400570;19;20033;-68
2022/03/23 07:37:10;;;;;;;32.78;20.00;;;;;;;2.71;52.59;102535.31;7399850;19;20429;-68
2022/03/23 07:39:38;;;;;;;33.72;20.10;;;;;;;2.84;52.63;102536.66;7400480;19;20041;-68
2022/03/23 07:42:08;;;;;;;30.77;19.45;;;;;;;2.97;52.36;102543.22;7400798;19;20018;-67
2022/03/23 07:44:38;;;;;;;28.48;18.83;;;;;;;3.10;52.63;102535.06;7397455;19;20106;-68
2022/03/23 07:47:10;;;;;;;34.33;20.92;;;;;;;3.23;52.47;102541.59;7401021;19;20010;-67
2022/03/23 07:49:38;;;;;;;28.77;20.70;;;;;;;3.36;52.23;102537.78;7400655;19;20019;-67
2022/03/23 07:52:07;;;;;;;31.90;20.40;;;;;;;3.48;51.84;102541.66;7399813;19;20039;-68
2022/03/23 07:54:35;;;;;;;28.55;18.75;;;;;;;3.59;51.84;102546.38;7396994;19;20496;-67
2022/03/23 07:57:03;;;;;;;27.40;19.88;;;;;;;3.71;51.52;102545.94;7399781;19;20483;-69
2022/03/23 07:59:31;;;;;;;23.73;15.63;;;;;;;3.81;51.08;102538.47;7396977;19;20032;-68
2022/03/23 08:02:02;;;;;;;24.33;14.73;;;;;;;3.92;50.74;102537.16;7397748;19;20031;-68
2022/03/23 08:04:30;;;;;;;18.75;13.43;;;;;;;4.03;50.57;102527.09;7396820;19;20475;-68
2022/03/23 08:06:59;;;;;;;25.52;15.25;;;;;;;4.14;50.49;102524.88;7397772;19;20019;-67
2022/03/23 08:09:28;;;;;;;21.98;13.93;;;;;;;4.27;49.99;102524.44;7399101;19;20019;-68
2022/03/23 08:11:56;;;;;;;22.00;15.13;;;;;;;4.38;49.97;102530.00;7399359;19;20022;-68
2022/03/23 08:14:24;;;;;;;24.42;14.27;;;;;;;4.50;49.81;102532.09;7396804;19;20026;-68
2022/03/23 08:16:52;;;;;;;22.98;15.57;;;;;;;4.62;49.54;102532.50;7399082;19;20023;-68
2022/03/23 08:19:24;;;;;;;19.60;13.73;;;;;;;4.74;49.09;102534.63;7399509;19;20393;-68
2022/03/23 08:21:53;;;;;;;21.88;14.68;;;;;;;4.85;48.86;102537.53;7396582;19;20025;-68
2022/03/23 08:24:22;;;;;;;19.90;13.88;;;;;;;4.96;48.74;102532.69;7396626;19;20019;-69
2022/03/23 08:26:50;;;;;;;22.13;14.90;;;;;;;5.05;48.81;102528.63;7398086;19;20018;-68
2022/03/23 08:29:19;;;;;;;22.13;13.70;;;;;;;5.17;48.39;102537.66;7399468;19;20027;-68
2022/03/23 08:31:47;;;;;;;20.35;14.82;;;;;;;5.26;48.44;102535.31;7397024;19;20022;-68
2022/03/23 08:34:15;;;;;;;17.98;13.70;;;;;;;5.37;47.97;102528.69;7396921;19;20034;-68
2022/03/23 08:36:46;;;;;;;18.77;14.23;;;;;;;5.48;47.88;102536.78;7399218;19;20487;-68
2022/03/23 08:39:14;;;;;;;21.17;14.82;;;;;;;5.60;47.71;102533.66;7397117;19;20027;-68
2022/03/23 08:41:42;;;;;;;19.85;14.38;;;;;;;5.69;47.57;102528.69;7398653;19;20037;-68
2022/03/23 08:44:10;;;;;;;20.95;13.77;;;;;;;5.82;47.34;102531.63;7396561;19;20019;-68
2022/03/23 08:46:38;;;;;;;18.35;14.10;;;;;;;5.92;46.98;102522.34;7398089;19;20483;-68
2022/03/23 08:49:06;;;;;;;21.65;14.35;;;;;;;6.02;46.73;102529.59;7396372;19;20023;-68
2022/03/23 08:51:35;;;;;;;19.38;13.85;;;;;;;6.13;46.42;102525.53;7398117;19;20494;-68
2022/03/23 08:54:06;;;;;;;17.80;14.18;;;;;;;6.24;46.48;102525.78;7396814;19;20018;-68
2022/03/23 08:56:34;;;;;;;22.00;14.15;;;;;;;6.34;46.08;102533.00;7398716;19;20014;-69
2022/03/23 08:59:02;;;;;;;19.35;14.13;;;;;;;6.45;45.74;102532.38;7395743;19;20496;-68
2022/03/23 09:01:30;;;;;;;17.35;14.32;;;;;;;6.58;45.82;102531.81;7397708;19;20025;-68
2022/03/23 09:04:03;;;;;;;22.48;14.02;;;;;;;6.73;45.46;102528.69;7395809;19;20436;-68
2022/03/23 09:06:32;;;;;;;21.80;16.33;;;;;;;6.88;45.19;102525.53;7398651;19;20018;-68
2022/03/23 09:09:00;;;;;;;19.13;14.43;;;;;;;7.03;44.76;102522.38;7398107;19;20022;-68
2022/03/23 09:11:32;;;;;;;23.08;14.73;;;;;;;7.17;44.45;102522.69;7398045;19;20035;-67
2022/03/23 09:14:00;;;;;;;19.63;14.30;;;;;;;7.29;44.02;102530.78;7395898;19;20018;-67
2022/03/23 09:16:29;;;;;;;21.10;15.18;;;;;;;7.39;43.80;102528.34;7397407;19;20469;-69
2022/03/23 09:19:00;;;;;;;19.38;14.57;;;;;;;7.50;43.49;102526.81;7397622;19;20377;-68
2022/03/23 09:21:29;;;;;;;24.23;15.07;;;;;;;7.62;43.34;102527.06;7395674;19;20014;-68
2022/03/23 09:23:57;;;;;;;23.20;15.05;;;;;;;7.75;43.02;102527.31;7394814;19;20535;-68
2022/03/23 09:26:25;;;;;;;19.33;14.68;;;;;;;7.87;42.58;102519.66;7396197;19;20385;-69
2022/03/23 09:28:56;;;;;;;22.88;15.77;;;;;;;8.01;42.35;102524.28;7395157;19;20093;-66
2022/03/23 09:31:25;;;;;;;23.27;17.13;;;;;;;8.13;42.11;102519.25;7393770;19;20022;-64
2022/03/23 09:33:54;;;;;;;29.08;17.73;;;;;;;8.29;42.01;102512.53;7394448;19;20023;-65
2022/03/23 09:37:47;;;;;;;22.80;17.98;;;;;;;8.40;41.77;102510.97;7395837;19;20529;-64
2022/03/23 09:39:13;;;;;;;22.42;17.20;;;;;;;8.55;41.29;102512.97;7394901;19;20010;-66
2022/03/23 09:41:43;;;;;;;24.02;16.75;;;;;;;8.64;41.24;102515.75;7393902;19;20018;-65
2022/03/23 09:44:15;;;;;;;21.88;15.77;;;;;;;8.79;40.65;102514.19;7394633;19;20030;-63
2022/03/23 09:46:43;;;;;;;24.02;17.35;;;;;;;8.92;40.41;102513.53;7396705;19;20018;-63
2022/03/23 09:49:12;;;;;;;25.20;16.70;;;;;;;9.04;40.14;102514.53;7393953;19;20044;-65
2022/03/23 09:51:42;;;;;;;23.15;15.80;;;;;;;9.17;40.14;102523.44;7393773;19;20030;-63
2022/03/23 09:54:11;;;;;;;19.42;16.33;;;;;;;9.29;39.57;102511.34;7393274;19;20403;-63
2022/03/23 09:56:39;;;;;;;24.10;16.30;;;;;;;9.45;39.24;102514.16;7395924;19;20019;-64
2022/03/23 09:59:08;;;;;;;27.70;16.77;;;;;;;9.56;38.97;102509.91;7395622;19;20035;-65
2022/03/23 10:02:13;;;;;;;21.63;17.17;;;;;;;9.68;38.31;102506.56;7395804;19;20106;-65
2022/03/23 10:05:07;;;;;;;;;;;;;;;9.80;37.32;102510.16;7396076;19;20031;-65
2022/03/23 10:07:45;;;;;;;21.63;15.27;;;;;;;9.96;38.30;102501.56;7394309;19;19978;-66
2022/03/23 10:10:43;;;;;;;23.23;16.33;;;;;;;10.09;37.73;102499.94;7395659;19;20419;-64
2022/03/23 10:13:54;;;;;;;21.30;15.35;;;;;;;10.20;37.29;102500.91;7392963;19;20015;-65
2022/03/23 10:16:52;;;;;;;20.70;15.82;;;;;;;10.33;36.66;102495.75;7393327;19;20374;-64
2022/03/23 10:19:20;;;;;;;20.75;16.08;;;;;;;10.45;36.61;102487.09;7394084;19;20018;-65
2022/03/23 10:21:49;;;;;;;20.52;15.88;;;;;;;10.57;36.28;102489.81;7395188;19;20036;-65
2022/03/23 10:24:35;;;;;;;18.50;13.90;;;;;;;10.68;34.37;102493.38;7393488;19;20013;-65
2022/03/23 10:27:08;;;;;;;23.17;14.50;;;;;;;10.81;35.64;102488.22;7393299;19;20023;-67
2022/03/23 10:29:42;;;;;;;21.63;14.27;;;;;;;10.91;34.80;102485.63;7394589;19;20033;-66
2022/03/23 10:32:13;;;;;;;19.88;14.60;;;;;;;11.04;34.77;102490.94;7395687;19;20043;-66
2022/03/23 10:34:52;;;;;;;18.65;14.25;;;;;;;11.18;33.80;102485.72;7393914;19;20494;-68
2022/03/23 10:37:30;;;;;;;20.95;14.48;;;;;;;11.33;33.34;102482.28;7394157;19;20373;-66
2022/03/23 10:40:03;;;;;;;15.68;13.82;;;;;;;11.47;33.41;102484.94;7392924;19;20369;-66
2022/03/23 10:42:34;;;;;;;18.33;14.05;;;;;;;11.60;33.46;102476.22;7393374;19;20018;-65
2022/03/23 10:45:12;;;;;;;17.42;13.63;;;;;;;11.72;32.20;102473.59;7392739;19;20433;-64
2022/03/23 10:47:42;;;;;;;17.88;13.02;;;;;;;11.81;32.94;102475.34;7394832;19;20368;-66
2022/03/23 10:50:18;;;;;;;17.35;13.35;;;;;;;11.94;32.95;102478.00;7394452;19;20031;-65
2022/03/23 10:52:53;;;;;;;18.33;13.43;;;;;;;12.02;32.34;102473.66;7392962;19;20014;-68
2022/03/23 10:55:25;;;;;;;16.20;12.88;;;;;;;12.11;32.64;102465.75;7393289;19;20018;-66
2022/03/23 10:58:21;;;;;;;15.55;12.43;;;;;;;12.21;32.51;102469.25;7395037;19;20019;-66
2022/03/23 11:00:49;;;;;;;19.05;14.65;;;;;;;12.31;32.75;102460.47;7394691;19;20090;-65
2022/03/23 11:03:18;;;;;;;17.40;13.85;;;;;;;12.40;32.50;102470.13;7393359;19;20041;-66
2022/03/23 11:05:47;;;;;;;27.25;14.88;;;;;;;12.50;32.59;102461.31;7391704;19;20505;-65
2022/03/23 11:08:17;;;;;;;20.88;13.68;;;;;;;12.60;32.43;102456.91;7392532;19;20035;-66
2022/03/23 11:16:13;;;;;;;14.57;12.07;;;;;;;12.93;31.44;102448.88;7394159;19;20093;-65
2022/03/23 11:18:41;;;;;;;15.15;12.07;;;;;;;13.04;31.53;102441.78;7391823;19;20018;-65
2022/03/23 11:21:10;;;;;;;15.70;12.68;;;;;;;13.16;31.15;102447.00;7393588;19;20109;-65
2022/03/23 11:23:39;;;;;;;18.23;12.02;;;;;;;13.25;30.72;102430.25;7390777;19;20499;-64
2022/03/23 11:26:11;;;;;;;18.95;12.45;;;;;;;13.34;30.60;102431.97;7392010;19;20019;-65
2022/03/23 11:28:41;;;;;;;12.52;11.23;;;;;;;13.40;30.40;102434.59;7391051;19;20509;-65
2022/03/23 11:31:12;;;;;;;18.23;12.73;;;;;;;13.47;30.35;102425.78;7390373;19;20018;-71
2022/03/23 11:33:41;;;;;;;19.33;13.02;;;;;;;13.56;30.32;102429.22;7390397;19;20378;-69
2022/03/23 11:36:12;;;;;;;16.95;12.35;;;;;;;13.65;30.14;102434.44;7393091;19;20018;-66
2022/03/23 11:38:41;;;;;;;15.25;11.43;;;;;;;13.73;29.57;102426.47;7393056;19;20029;-64
2022/03/23 11:41:14;;;;;;;12.68;10.82;;;;;;;13.80;29.26;102418.50;7394245;19;20076;-65
2022/03/23 11:43:43;;;;;;;13.68;11.38;;;;;;;13.87;28.97;102411.38;7397673;19;20362;-64